Time;durP1;ratioP1;P1;durP2;ratioP2;P2;SDS_P1;SDS_P2;PMS_P1;PMS_P2;Temp;Humidity;BMP_temperature;BMP_pressure;BME280_temperature;BME280_humidity;BME280_pressure;Samples;Min_cycle;Max_cycle;Signal;HPM_P1;HPM_P2
2021/05/31 00:05:39;;;;;;;4.77;2.20;;;24.60;50.70;;;;;;21002772;28;20413;-61
2021/05/31 00:15:40;;;;;;;5.60;2.67;;;24.50;50.80;;;;;;21000765;28;20048;-61
2021/05/31 00:25:41;;;;;;;5.03;2.50;;;24.40;51.00;;;;;;21001423;28;20075;-61
2021/05/31 00:35:42;;;;;;;5.87;2.90;;;24.40;50.90;;;;;;21000363;28;20053;-63
2021/05/31 00:45:44;;;;;;;6.47;2.60;;;24.30;51.10;;;;;;20999310;28;20048;-61
2021/05/31 09:19:35;;;;;;;11.30;4.80;;;27.20;35.20;;;;;;21315066;22;20148;-51
2021/05/31 09:29:36;;;;;;;10.45;3.22;;;27.40;35.20;;;;;;20830251;28;20132;-52
2021/05/31 09:39:40;;;;;;;16.17;2.80;;;27.40;35.30;;;;;;20911326;28;20051;-51
2021/05/31 09:49:42;;;;;;;78.13;31.48;;;27.90;34.40;;;;;;20912154;28;20049;-54
2021/05/31 09:59:43;;;;;;;;;;;28.10;34.20;;;;;;20877473;28;20053;-50
2021/05/31 10:09:46;;;;;;;;;;;28.20;34.50;;;;;;20891421;28;19960;-46
2021/05/31 10:19:47;;;;;;;13.88;6.60;;;28.50;34.80;;;;;;20910436;28;19921;-45
2021/05/31 10:29:48;;;;;;;31.13;7.75;;;28.60;34.70;;;;;;20909713;28;20053;-50
2021/05/31 10:40:00;;;;;;;21.42;6.60;;;29.10;33.90;;;;;;20910591;28;20055;-52
2021/05/31 10:50:02;;;;;;;82.93;32.00;;;28.90;34.20;;;;;;20922790;28;20570;-53
2021/05/31 11:00:03;;;;;;;63.67;11.98;;;28.50;34.60;;;;;;20924952;28;20136;-55
2021/05/31 11:10:15;;;;;;;7.40;2.42;;;28.60;34.30;;;;;;20924664;28;20128;-55
2021/05/31 11:20:17;;;;;;;12.00;2.80;;;29.60;32.80;;;;;;20923514;28;20084;-53
2021/05/31 11:30:22;;;;;;;7.35;2.92;;;28.80;34.10;;;;;;20920276;28;20045;-55
2021/05/31 11:40:25;;;;;;;7.75;3.50;;;29.00;33.90;;;;;;20923115;28;20052;-53
2021/05/31 11:50:28;;;;;;;9.68;4.13;;;29.20;33.70;;;;;;20919931;28;20556;-55
2021/05/31 12:00:33;;;;;;;11.13;3.10;;;29.60;33.40;;;;;;20921744;28;20053;-49
2021/05/31 12:10:35;;;;;;;13.50;4.00;;;29.40;33.50;;;;;;20973533;28;20044;-54
2021/05/31 12:20:36;;;;;;;13.40;4.30;;;29.70;32.70;;;;;;21002484;28;20049;-55
2021/05/31 12:30:38;;;;;;;11.55;3.95;;;29.90;32.30;;;;;;20984433;28;20135;-53
2021/05/31 12:40:42;;;;;;;10.90;3.42;;;30.00;32.40;;;;;;21001007;28;20048;-53
2021/05/31 12:50:44;;;;;;;14.10;3.38;;;30.20;31.60;;;;;;21000317;28;20461;-53
2021/05/31 13:00:46;;;;;;;10.32;3.78;;;30.20;31.70;;;;;;20999539;28;20075;-55
2021/05/31 13:10:53;;;;;;;35.70;5.32;;;30.30;31.10;;;;;;20998487;28;20052;-55
2021/05/31 13:21:16;;;;;;;18.13;4.18;;;;;;;;;;20997651;28;20575;-54
2021/05/31 13:31:19;;;;;;;13.00;3.50;;;31.70;29.30;;;;;;20997549;28;20071;-54
2021/05/31 13:41:20;;;;;;;17.42;3.63;;;30.90;30.20;;;;;;20978004;28;20048;-54
2021/05/31 13:51:21;;;;;;;11.50;4.40;;;31.00;29.70;;;;;;20995391;28;20040;-55
2021/05/31 14:01:24;;;;;;;14.38;4.53;;;31.00;29.10;;;;;;20995162;28;20395;-55
2021/05/31 14:11:26;;;;;;;23.05;4.10;;;31.10;28.90;;;;;;20976959;28;20410;-55
2021/05/31 14:21:28;;;;;;;14.25;3.78;;;;;;;;;;20993601;28;20053;-54
2021/05/31 14:31:30;;;;;;;12.68;4.50;;;;;;;;;;20993058;28;20068;-55
2021/05/31 14:41:31;;;;;;;14.75;4.22;;;;;;;;;;20992837;28;20080;-54
2021/05/31 14:51:33;;;;;;;16.88;6.35;;;;;;;;;;20993212;28;20139;-55
2021/05/31 15:01:35;;;;;;;17.00;4.10;;;;;;;;;;20992741;28;20136;-54
2021/05/31 15:11:37;;;;;;;19.15;5.30;;;;;;;;;;20974040;28;20068;-55
2021/05/31 15:21:38;;;;;;;18.65;4.68;;;;;;;;;;20994438;28;20193;-54
2021/05/31 15:31:40;;;;;;;27.17;6.70;;;;;;;;;;21005853;28;20132;-55
2021/05/31 15:41:41;;;;;;;12.13;4.93;;;;;;;;;;21005220;28;20186;-54
2021/05/31 15:51:43;;;;;;;31.95;6.25;;;;;;;;;;21004347;28;20448;-57
2021/05/31 16:01:45;;;;;;;21.65;5.00;;;;;;;;;;21003384;28;20481;-51
2021/05/31 16:11:46;;;;;;;14.75;5.25;;;32.50;26.80;;;;;;20901542;28;20140;-49
2021/05/31 16:21:48;;;;;;;18.25;5.80;;;;;;;;;;20898463;28;20078;-50
2021/05/31 16:31:49;;;;;;;26.10;6.07;;;;;;;;;;20915809;28;20049;-50
2021/05/31 16:41:51;;;;;;;15.48;4.97;;;;;;;;;;20916663;28;20075;-50
2021/05/31 16:51:52;;;;;;;18.65;4.40;;;;;;;;;;20911197;28;20132;-51
2021/05/31 17:01:54;;;;;;;44.05;7.50;;;;;;;;;;20913042;28;20425;-52
2021/05/31 17:22:16;;;;;;;20.05;4.47;;;;;;;;;;20829015;28;20057;-50
2021/05/31 17:32:34;;;;;;;27.20;5.35;;;;;;;;;;20862472;28;20465;-51
2021/05/31 17:42:38;;;;;;;97.88;10.35;;;;;;;;;;20895329;28;20135;-49
2021/05/31 17:52:40;;;;;;;220.27;21.27;;;;;;;;;;20912617;28;20435;-50
2021/05/31 18:02:43;;;;;;;12.93;4.75;;;31.10;30.80;;;;;;20910642;28;20539;-51
2021/05/31 18:12:45;;;;;;;12.32;3.65;;;29.60;31.40;;;;;;20911360;28;20584;-50
2021/05/31 18:22:48;;;;;;;16.35;4.00;;;;;;;;;;20909478;28;20146;-50
2021/05/31 18:32:50;;;;;;;22.42;3.92;;;;;;;;;;20908698;28;20076;-53
2021/05/31 18:42:51;;;;;;;12.85;4.15;;;;;;;;;;20910139;28;20080;-54
2021/05/31 18:52:53;;;;;;;14.23;4.20;;;;;;;;;;20909397;28;20139;-53
2021/05/31 19:02:55;;;;;;;12.70;3.45;;;;;;;;;;20923361;28;20134;-54
2021/05/31 19:12:56;;;;;;;12.63;4.68;;;;;;;;;;20925243;28;20137;-54
2021/05/31 19:22:58;;;;;;;13.15;4.93;;;;;;;;;;20924142;28;20053;-53
2021/05/31 19:33:00;;;;;;;13.60;3.67;;;;;;;;;;20924062;28;20048;-52
2021/05/31 19:43:01;;;;;;;17.60;5.18;;;;;;;;;;20925057;28;20077;-54
2021/05/31 19:53:07;;;;;;;15.43;3.72;;;;;;;;;;20922344;28;20060;-55
2021/05/31 20:03:09;;;;;;;17.30;4.20;;;;;;;;;;20921579;28;20049;-54
2021/05/31 20:13:11;;;;;;;10.48;3.50;;;;;;;;;;20919577;28;20072;-54
2021/05/31 20:23:12;;;;;;;;;;;;;;;;;;20920719;28;20085;-54
2021/05/31 20:33:14;;;;;;;22.10;5.30;;;26.10;51.40;;;;;;20901789;28;20009;-54
2021/05/31 20:43:15;;;;;;;11.60;4.10;;;25.00;56.40;;;;;;20901194;28;20068;-54
2021/05/31 20:53:17;;;;;;;15.65;4.70;;;24.70;55.70;;;;;;20918200;28;20479;-56
2021/05/31 21:03:18;;;;;;;11.70;4.23;;;24.30;58.10;;;;;;20917691;28;20146;-55
2021/05/31 21:13:23;;;;;;;15.47;4.90;;;23.50;60.90;;;;;;20916859;28;20524;-54
2021/05/31 21:23:29;;;;;;;13.48;4.65;;;23.50;60.10;;;;;;20915259;28;20460;-54
2021/05/31 21:33:31;;;;;;;18.73;6.35;;;23.70;58.60;;;;;;20914493;28;20083;-53
2021/05/31 21:43:32;;;;;;;16.33;6.10;;;23.60;60.50;;;;;;20914347;28;20219;-55
2021/05/31 21:53:33;;;;;;;15.43;5.23;;;23.60;62.20;;;;;;20895820;28;20060;-54
2021/05/31 22:03:35;;;;;;;17.27;5.37;;;23.50;65.20;;;;;;20913178;28;20472;-54
2021/05/31 22:13:39;;;;;;;9.05;3.78;;;23.30;64.30;;;;;;20877967;28;20501;-54
2021/05/31 22:23:45;;;;;;;12.75;4.32;;;23.20;64.10;;;;;;20893864;28;20540;-54
2021/05/31 22:33:48;;;;;;;11.10;4.38;;;22.90;64.90;;;;;;20919195;28;20053;-54
2021/05/31 23:04:10;;;;;;;10.65;2.97;;;22.60;63.30;;;;;;20926750;28;20049;-52
2021/05/31 23:14:11;;;;;;;10.65;3.42;;;22.40;63.30;;;;;;20925413;28;20049;-54
2021/05/31 23:24:13;;;;;;;10.15;2.97;;;22.10;63.90;;;;;;20925589;28;20053;-54
2021/05/31 23:34:14;;;;;;;7.70;2.70;;;22.00;64.80;;;;;;20924377;28;20045;-53
2021/05/31 23:44:16;;;;;;;6.32;2.55;;;21.90;64.30;;;;;;20905843;28;20049;-54
2021/05/31 23:54:18;;;;;;;10.27;3.20;;;21.90;63.90;;;;;;20923165;28;20061;-54
